Etusivu
METAR-TAF:

METAR-TAF

Lentoasemat :

Rexburg-Madison County Airport

Rexburg, Idaho, Yhdysvallat

Leveyspiiri: 43-49-54N, Pituuspiiri: 111-48-22W, korkeus merenpinnasta: 1481 m

Tämänhetkinen sää

Tämä raportti tehtiin 34 minuuttia sitten, kello 10.53 UTC
Tuuli 7 kn etelästä/lounaasta
Lämpötila 5°C
Kosteus 81%
Ilmanpaine 1016 hPa
Näkyvyys: 16.1 km
Pilvistä 1500 ft:n korkeudessa

METAR: KRXE 071053Z AUTO 20007KT 10SM OVC015 05/02 A3000 RMK AO2 SLP154 T00500017 $

Aika: 05:27 (11:27 UTC)


TAF: puuttuu

Säähavainnot ja -ennusteet yli 4000 lentoasemalta (METAR- ja TAF-raportit).

Käytössä olevat sääasemat on merkitty karttaan keltaisilla ja punaisilla pisteillä.

Aseta hiiri pisteen päälle nähdäksesi sääaseman nimen.

Klikkaa sitten nähdäksesi säähavainnot ja -ennusteet.

Kartan vaihtaminen: klikkaa mustalla rastilla varustettuja vihreitä pisteitä, niin voit zoomata sisään; viivalla varustettua vihreää pistettä, niin voit zoomata ulos tai vihreitä nuolia, niin pääset viereisille kartoille.


METAR-TAF: